Time;durP1;ratioP1;P1;durP2;ratioP2;P2;SDS_P1;SDS_P2;PMS_P1;PMS_P2;Temp;Humidity;BMP_temperature;BMP_pressure;BME280_temperature;BME280_humidity;BME280_pressure;Samples;Min_cycle;Max_cycle;Signal;HPM_P1;HPM_P2
2022/10/21 08:01:35;;;;;;;7.50;5.10;;;;;;;13.83;100.00;100485.53;5307999;27;20356;-69
2022/10/21 08:04:06;;;;;;;6.72;4.25;;;;;;;13.96;100.00;100477.38;5281035;28;20044;-69
2022/10/21 08:06:38;;;;;;;7.45;4.97;;;;;;;13.94;100.00;100476.91;5276463;28;20471;-69
2022/10/21 08:09:09;;;;;;;16.20;14.55;;;;;;;13.93;100.00;100481.63;5279645;28;20071;-69
2022/10/21 08:11:41;;;;;;;7.68;5.10;;;;;;;13.95;100.00;100472.97;5279599;28;20128;-69
2022/10/21 08:14:13;;;;;;;6.93;4.53;;;;;;;14.01;100.00;100474.44;5272375;28;20021;-69
2022/10/21 08:16:44;;;;;;;5.68;4.50;;;;;;;14.04;100.00;100473.84;5259918;28;20017;-69
2022/10/21 08:19:20;;;;;;;8.50;5.47;;;;;;;14.06;100.00;100474.31;5278057;28;20028;-69
2022/10/21 08:21:51;;;;;;;6.90;4.65;;;;;;;14.03;100.00;100470.19;5258334;28;20503;-69
2022/10/21 08:24:22;;;;;;;9.68;5.32;;;;;;;14.06;100.00;100475.16;5278639;28;20029;-69
2022/10/21 08:26:54;;;;;;;7.90;4.72;;;;;;;14.10;100.00;100490.06;5279546;28;20048;-69
2022/10/21 08:29:25;;;;;;;8.20;5.18;;;;;;;14.09;100.00;100496.00;5277864;28;20030;-69
2022/10/21 08:31:57;;;;;;;11.02;5.45;;;;;;;14.10;100.00;100489.25;5278546;28;20108;-69
2022/10/21 08:34:28;;;;;;;7.25;4.80;;;;;;;14.11;100.00;100497.31;5279237;28;20033;-69
2022/10/21 08:37:00;;;;;;;6.43;4.82;;;;;;;14.12;100.00;100495.34;5279142;28;20024;-68
2022/10/21 08:39:31;;;;;;;6.88;3.90;;;;;;;14.25;100.00;100494.41;5279337;28;20020;-69
2022/10/21 08:42:15;;;;;;;9.15;5.80;;;;;;;14.23;100.00;100496.69;5279230;28;20404;-69
2022/10/21 08:44:57;;;;;;;8.40;5.40;;;;;;;14.22;100.00;100499.81;5279024;28;20070;-69
2022/10/21 08:47:47;;;;;;;8.43;5.82;;;;;;;14.28;100.00;100499.31;5278163;28;20111;-69
2022/10/21 08:50:21;;;;;;;9.30;4.88;;;;;;;14.29;100.00;100492.63;5278447;28;20480;-69
2022/10/21 08:53:04;;;;;;;7.45;4.35;;;;;;;14.35;100.00;100496.91;5278295;28;20435;-69
2022/10/21 08:55:39;;;;;;;6.38;4.70;;;;;;;14.31;100.00;100506.22;5278906;28;20033;-68
2022/10/21 08:58:22;;;;;;;7.70;5.70;;;;;;;14.28;100.00;100527.22;5278358;28;20568;-68
2022/10/21 09:01:11;;;;;;;13.98;5.85;;;;;;;14.29;100.00;100523.31;5277331;28;20064;-69
2022/10/21 09:03:53;;;;;;;6.78;4.25;;;;;;;14.18;100.00;100516.34;5257517;28;20037;-69
2022/10/21 09:06:36;;;;;;;8.32;4.95;;;;;;;14.27;100.00;100520.00;5259191;28;20100;-67
2022/10/21 09:09:24;;;;;;;7.70;4.93;;;;;;;14.24;100.00;100520.66;5270260;28;20486;-68
2022/10/21 09:12:12;;;;;;;7.47;5.50;;;;;;;14.30;100.00;100508.19;5268457;28;20025;-68
2022/10/21 09:15:19;;;;;;;6.55;4.00;;;;;;;14.30;100.00;100510.19;5264523;28;20032;-68
2022/10/21 09:21:25;;;;;;;;;;;;;;;14.39;100.00;100487.88;5264774;28;20033;-71
2022/10/21 09:24:05;;;;;;;6.43;3.20;;;;;;;14.41;100.00;100508.72;5264202;28;20355;-68
2022/10/21 09:26:49;;;;;;;4.32;2.38;;;;;;;14.43;100.00;100497.25;5263828;28;20024;-70
2022/10/21 09:29:29;;;;;;;6.32;3.00;;;;;;;14.54;100.00;100506.97;5264560;28;20022;-68
2022/10/21 09:32:06;;;;;;;7.13;2.63;;;;;;;14.58;100.00;100513.56;5261831;28;20029;-70
2022/10/21 09:34:51;;;;;;;5.93;2.80;;;;;;;14.64;100.00;100512.25;5263843;28;20037;-71
2022/10/21 09:37:35;;;;;;;5.43;2.75;;;;;;;14.69;100.00;100509.31;5264075;28;20029;-70
2022/10/21 09:40:18;;;;;;;8.95;3.47;;;;;;;14.77;100.00;100508.50;5262763;28;20021;-69
2022/10/21 09:42:54;;;;;;;3.80;3.20;;;;;;;14.83;100.00;100500.81;5263798;28;20033;-67
2022/10/21 09:45:32;;;;;;;5.20;3.38;;;;;;;14.84;100.00;100498.84;5263683;28;20522;-67
2022/10/21 09:48:05;;;;;;;5.03;3.20;;;;;;;14.87;100.00;100503.75;5258664;28;20091;-67
2022/10/21 09:50:37;;;;;;;7.55;3.10;;;;;;;14.94;100.00;100506.91;5263924;28;20040;-67
2022/10/21 09:53:16;;;;;;;6.45;3.58;;;;;;;14.97;100.00;100498.66;5262991;28;20104;-70
2022/10/21 09:55:51;;;;;;;5.38;3.63;;;;;;;14.99;100.00;100501.97;5258608;28;20025;-69
2022/10/21 09:58:24;;;;;;;;;;;;;;;15.05;100.00;100513.78;5260552;28;20032;-69
2022/10/21 10:00:56;;;;;;;8.18;5.65;;;;;;;15.09;100.00;100512.00;5263110;28;19923;-69
2022/10/21 10:03:49;;;;;;;7.43;5.90;;;;;;;15.13;100.00;100512.97;5263680;28;20025;-69
2022/10/21 10:06:37;;;;;;;8.30;4.30;;;;;;;15.16;100.00;100515.13;5263141;28;20460;-70
2022/10/21 10:09:31;;;;;;;8.60;3.78;;;;;;;15.18;100.00;100510.00;5262773;28;20021;-69
2022/10/21 10:12:05;;;;;;;6.57;5.03;;;;;;;15.23;100.00;100509.84;5263589;28;20064;-69
2022/10/21 10:14:39;;;;;;;8.45;4.60;;;;;;;15.28;100.00;100508.03;5257898;28;20506;-69
2022/10/21 10:17:28;;;;;;;6.10;4.53;;;;;;;15.34;100.00;100523.47;5263824;28;20032;-69
2022/10/21 10:20:02;;;;;;;6.70;4.45;;;;;;;15.37;100.00;100529.25;5262640;28;20300;-69
2022/10/21 10:22:46;;;;;;;8.90;5.78;;;;;;;15.41;100.00;100527.41;5261650;28;20021;-69
2022/10/21 10:25:21;;;;;;;11.05;9.48;;;;;;;15.47;100.00;100528.09;5262642;28;20033;-69
2022/10/21 10:27:58;;;;;;;8.38;5.88;;;;;;;15.51;100.00;100528.22;5262924;28;20028;-69
2022/10/21 10:30:41;;;;;;;10.07;6.70;;;;;;;15.54;100.00;100533.97;5261767;28;20063;-69
2022/10/21 10:33:25;;;;;;;11.98;6.07;;;;;;;15.55;100.00;100524.44;5263162;28;20140;-68
2022/10/21 10:35:59;;;;;;;10.68;7.07;;;;;;;15.62;100.00;100530.38;5263078;28;20128;-68
2022/10/21 10:38:41;;;;;;;7.85;6.97;;;;;;;15.64;100.00;100528.03;5262256;28;20037;-68
2022/10/21 10:41:16;;;;;;;9.20;6.13;;;;;;;15.68;100.00;100519.00;5262609;28;20119;-66
2022/10/21 10:43:52;;;;;;;9.80;5.55;;;;;;;15.72;100.00;100518.06;5262305;28;20035;-66
2022/10/21 10:46:29;;;;;;;8.95;5.30;;;;;;;15.80;100.00;100525.59;5262109;28;20048;-68
2022/10/21 10:49:12;;;;;;;9.80;4.97;;;;;;;15.85;100.00;100527.41;5248388;28;20033;-67
2022/10/21 10:52:01;;;;;;;6.18;5.10;;;;;;;15.91;100.00;100533.63;5251605;28;20037;-68
2022/10/21 10:54:35;;;;;;;5.38;4.60;;;;;;;15.92;100.00;100533.28;5261439;28;20070;-67
2022/10/21 10:57:22;;;;;;;9.10;5.78;;;;;;;16.04;100.00;100529.78;5261461;28;20021;-68
2022/10/21 11:00:12;;;;;;;7.47;5.82;;;;;;;16.13;100.00;100527.81;5243969;28;20049;-67
2022/10/21 11:03:08;;;;;;;8.10;6.28;;;;;;;16.18;100.00;100523.97;5250229;28;20082;-66
2022/10/21 11:05:47;;;;;;;9.35;6.70;;;;;;;16.24;100.00;100511.47;5254332;28;20353;-66
2022/10/21 11:08:28;;;;;;;8.95;5.47;;;;;;;16.28;100.00;100515.22;5261102;28;20037;-67
2022/10/21 11:11:30;;;;;;;6.90;5.47;;;;;;;16.32;100.00;100501.38;5241115;28;20183;-67
2022/10/21 11:14:02;;;;;;;7.85;4.78;;;;;;;16.35;100.00;100492.31;5257259;28;20029;-67
2022/10/21 11:16:50;;;;;;;6.45;4.35;;;;;;;16.41;100.00;100494.59;5262006;28;20021;-67
2022/10/21 11:19:33;;;;;;;7.00;4.50;;;;;;;16.41;100.00;100496.53;5261674;28;20078;-66
2022/10/21 11:22:12;;;;;;;6.85;4.05;;;;;;;16.49;100.00;100493.72;5247905;28;20071;-67
2022/10/21 11:24:52;;;;;;;9.32;8.05;;;;;;;16.64;100.00;100502.66;5240813;28;20353;-67
2022/10/21 11:27:29;;;;;;;4.95;4.32;;;;;;;16.74;100.00;100505.06;5248002;28;20036;-66
2022/10/21 11:30:35;;;;;;;4.85;3.47;;;;;;;16.92;100.00;100506.66;5255550;28;20025;-67
2022/10/21 11:33:25;;;;;;;6.10;3.67;;;;;;;17.09;100.00;100504.84;5274168;28;20119;-67
2022/10/21 11:36:23;;;;;;;3.90;3.03;;;;;;;17.23;100.00;100516.63;5261620;28;20035;-67
2022/10/21 11:39:27;;;;;;;4.10;2.47;;;;;;;17.28;100.00;100513.59;5242274;28;20025;-67
2022/10/21 11:42:08;;;;;;;4.32;2.05;;;;;;;17.40;100.00;100510.03;5250402;28;20033;-67
2022/10/21 11:45:01;;;;;;;4.00;2.25;;;;;;;17.44;100.00;100512.97;5261832;28;20422;-67
2022/10/21 11:47:48;;;;;;;3.80;2.80;;;;;;;17.54;100.00;100513.34;5260203;28;20078;-68
2022/10/21 11:50:25;;;;;;;5.20;2.70;;;;;;;17.55;100.00;100498.16;5261664;28;20021;-68
2022/10/21 11:53:16;;;;;;;3.42;2.40;;;;;;;17.50;99.76;100501.19;5260011;28;20052;-67
2022/10/21 11:56:00;;;;;;;2.80;1.85;;;;;;;17.51;100.00;100497.22;5249485;28;20117;-68
2022/10/21 11:58:49;;;;;;;3.95;1.70;;;;;;;17.57;100.00;100486.63;5251202;28;20065;-66
2022/10/21 12:01:49;;;;;;;3.65;1.52;;;;;;;17.57;99.89;100500.63;5246080;28;20060;-67
2022/10/21 12:04:29;;;;;;;2.67;1.40;;;;;;;17.60;100.00;100497.13;5261481;28;20033;-67
2022/10/21 12:07:16;;;;;;;2.15;1.35;;;;;;;17.59;100.00;100503.91;5260341;28;20152;-66
2022/10/21 12:10:09;;;;;;;3.38;1.23;;;;;;;17.63;98.17;100495.63;5260368;28;20029;-67
2022/10/21 12:12:46;;;;;;;3.45;2.25;;;;;;;17.68;97.11;100501.81;5250697;28;20029;-67
2022/10/21 12:15:22;;;;;;;2.25;1.45;;;;;;;17.76;97.87;100489.69;5239811;28;20017;-66
2022/10/21 12:17:55;;;;;;;2.72;1.35;;;;;;;17.85;96.13;100484.03;5258112;28;20376;-66
2022/10/21 12:20:31;;;;;;;2.28;1.70;;;;;;;17.85;95.95;100484.03;5259317;28;20154;-66
2022/10/21 12:23:04;;;;;;;;;;;;;;;17.86;97.04;100480.03;5240899;28;20025;-67
2022/10/21 12:26:08;;;;;;;3.75;1.38;;;;;;;17.85;95.95;100489.63;5241245;28;19924;-67
2022/10/21 12:28:54;;;;;;;2.33;1.13;;;;;;;17.79;94.45;100486.25;5251783;28;20025;-67
2022/10/21 12:31:50;;;;;;;2.20;1.30;;;;;;;17.94;94.36;100495.13;5257686;28;20025;-67
2022/10/21 12:34:23;;;;;;;4.40;1.60;;;;;;;17.95;93.72;100494.00;5257494;28;20029;-68
2022/10/21 12:36:54;;;;;;;2.67;1.23;;;;;;;17.96;92.47;100493.63;5242397;28;20033;-68
2022/10/21 12:39:31;;;;;;;4.38;1.30;;;;;;;17.86;92.01;100496.88;5244000;28;20026;-67
2022/10/21 12:42:17;;;;;;;2.58;1.10;;;;;;;17.88;92.91;100499.34;5257242;28;20083;-67
2022/10/21 12:44:49;;;;;;;;;;;;;;;17.89;93.50;100496.19;5259445;28;20039;-67
2022/10/21 12:47:31;;;;;;;3.42;1.00;;;;;;;17.87;92.92;100495.72;5246490;28;19935;-66
2022/10/21 12:50:21;;;;;;;2.80;1.40;;;;;;;17.87;93.72;100497.69;5246949;28;20029;-68
2022/10/21 12:53:36;;;;;;;4.30;1.33;;;;;;;17.90;94.71;100492.22;5265200;28;20087;-68
2022/10/21 12:56:09;;;;;;;2.65;1.15;;;;;;;17.94;92.98;100492.34;5219353;28;20095;-67
2022/10/21 12:58:44;;;;;;;1.90;1.00;;;;;;;17.99;92.84;100492.09;5265035;28;20448;-66
2022/10/21 13:02:04;;;;;;;1.65;1.20;;;;;;;18.05;93.57;100493.53;5264141;28;20131;-66
2022/10/21 13:04:35;;;;;;;2.92;1.73;;;;;;;18.22;93.49;100486.88;5245470;28;20049;-66
2022/10/21 13:07:15;;;;;;;2.45;1.13;;;;;;;18.32;93.46;100502.44;5245271;28;20072;-67
2022/10/21 13:09:49;;;;;;;6.82;5.80;;;;;;;18.36;91.45;100494.97;5254851;28;20033;-67
2022/10/21 13:12:23;;;;;;;4.45;2.45;;;;;;;18.47;91.04;100494.13;5255007;28;20025;-67
2022/10/21 13:14:56;;;;;;;4.32;1.40;;;;;;;18.55;91.58;100492.34;5264128;28;20107;-67
2022/10/21 13:17:49;;;;;;;3.92;1.98;;;;;;;18.64;91.42;100493.06;5264009;28;20029;-67
2022/10/21 13:20:20;;;;;;;1.10;1.00;;;;;;;18.66;88.86;100504.78;5263464;28;20041;-68
2022/10/21 13:22:56;;;;;;;2.83;1.60;;;;;;;18.68;86.87;100499.59;5264644;28;20123;-68
2022/10/21 13:25:31;;;;;;;3.95;1.20;;;;;;;18.61;87.42;100499.38;5263532;28;20279;-68
2022/10/21 13:28:11;;;;;;;2.17;1.27;;;;;;;18.67;88.49;100503.59;5263382;28;20035;-68
2022/10/21 13:30:48;;;;;;;2.60;1.88;;;;;;;18.73;89.54;100500.53;5253955;28;20333;-68
2022/10/21 13:33:25;;;;;;;6.93;1.70;;;;;;;18.72;89.55;100499.72;5262579;28;20040;-68
2022/10/21 13:36:01;;;;;;;3.97;1.45;;;;;;;18.78;89.92;100501.13;5264068;28;20021;-68
2022/10/21 13:38:35;;;;;;;3.47;1.58;;;;;;;18.73;89.34;100500.53;5263083;28;20484;-67
2022/10/21 13:41:22;;;;;;;4.38;1.40;;;;;;;18.77;89.10;100495.88;5253023;28;20383;-67
2022/10/21 13:43:56;;;;;;;3.58;1.80;;;;;;;18.78;88.42;100489.91;5243493;28;20595;-68
2022/10/21 13:46:33;;;;;;;11.85;3.05;;;;;;;18.83;89.03;100489.66;5253908;28;20017;-68
2022/10/21 13:49:04;;;;;;;3.33;1.48;;;;;;;18.84;87.80;100498.91;5261270;28;20506;-68
2022/10/21 13:51:45;;;;;;;4.97;3.70;;;;;;;18.86;87.97;100499.38;5243348;28;20033;-68
2022/10/21 13:54:16;;;;;;;2.30;1.83;;;;;;;18.81;87.34;100496.81;5249305;28;20120;-66
2022/10/21 13:56:47;;;;;;;3.85;1.50;;;;;;;18.77;86.41;100507.13;5257019;28;20488;-67
2022/10/21 13:59:24;;;;;;;1.33;1.10;;;;;;;18.81;86.97;100496.81;5250880;28;20489;-67
2022/10/21 14:01:57;;;;;;;5.03;1.60;;;;;;;18.82;86.05;100495.66;5244886;28;20040;-66
2022/10/21 14:04:31;;;;;;;4.53;3.45;;;;;;;18.86;86.14;100499.38;5262913;28;20074;-67
2022/10/21 14:07:06;;;;;;;5.05;1.60;;;;;;;18.86;87.64;100499.38;5241956;28;20029;-66
2022/10/21 14:09:44;;;;;;;6.03;2.85;;;;;;;18.89;88.31;100495.84;5243014;28;20033;-67
2022/10/21 14:12:24;;;;;;;2.45;1.42;;;;;;;18.91;87.08;100490.69;5256981;28;20094;-67
2022/10/21 14:15:02;;;;;;;3.47;2.10;;;;;;;18.92;87.71;100497.13;5263072;28;20017;-67
2022/10/21 14:17:39;;;;;;;3.45;1.38;;;;;;;18.96;87.64;100492.44;5257448;28;20120;-67
2022/10/21 14:20:16;;;;;;;3.25;1.80;;;;;;;18.98;87.11;100502.16;5262336;28;20502;-67
2022/10/21 14:22:50;;;;;;;10.20;9.30;;;;;;;19.00;86.87;100510.25;5262888;28;20054;-68
2022/10/21 14:25:25;;;;;;;5.05;1.65;;;;;;;18.99;86.07;100511.41;5263050;28;20032;-68
2022/10/21 14:27:59;;;;;;;2.97;1.48;;;;;;;18.93;86.16;100513.63;5261953;28;20052;-68
2022/10/21 14:30:33;;;;;;;4.10;1.92;;;;;;;18.91;85.89;100513.16;5244594;28;20044;-67
2022/10/21 14:33:14;;;;;;;3.35;1.45;;;;;;;18.87;86.41;100509.44;5241813;28;20025;-68
2022/10/21 14:36:03;;;;;;;2.90;2.42;;;;;;;18.93;87.86;100518.44;5242016;28;20025;-68
2022/10/21 14:38:38;;;;;;;2.97;2.30;;;;;;;18.98;88.42;100507.78;5262085;28;20112;-69
2022/10/21 14:41:18;;;;;;;5.47;1.80;;;;;;;19.01;88.96;100518.31;5243379;28;20457;-68
2022/10/21 14:43:51;;;;;;;4.05;1.75;;;;;;;19.07;88.90;100513.25;5263104;28;20535;-67
2022/10/21 14:46:22;;;;;;;3.25;1.95;;;;;;;19.18;88.70;100508.78;5258834;28;20515;-67
2022/10/21 14:48:58;;;;;;;3.83;1.88;;;;;;;19.24;88.65;100510.16;5261665;28;20112;-67
2022/10/21 14:51:35;;;;;;;3.70;1.70;;;;;;;19.20;88.23;100514.88;5262706;28;20559;-68
2022/10/21 14:54:29;;;;;;;4.78;1.77;;;;;;;19.22;88.73;100512.50;5261980;28;20025;-67
2022/10/21 14:57:03;;;;;;;4.85;1.80;;;;;;;19.29;87.13;100517.53;5261938;28;20036;-68
2022/10/21 14:59:41;;;;;;;4.75;1.42;;;;;;;19.24;87.89;100514.97;5262282;28;20515;-67
2022/10/21 15:02:19;;;;;;;5.70;1.73;;;;;;;19.26;87.50;100509.81;5255256;28;20064;-68
2022/10/21 15:04:56;;;;;;;2.83;1.70;;;;;;;19.26;86.60;100501.38;5259221;28;20028;-67
2022/10/21 15:07:30;;;;;;;3.03;1.40;;;;;;;19.17;87.30;100497.88;5261492;28;20055;-67
2022/10/21 15:10:01;;;;;;;2.47;1.70;;;;;;;19.14;87.24;100496.59;5261492;28;20464;-67
2022/10/21 15:12:42;;;;;;;4.07;2.47;;;;;;;19.06;87.45;100494.75;5262014;28;20036;-67
2022/10/21 15:15:42;;;;;;;5.53;2.47;;;;;;;19.03;86.71;100501.09;5261120;28;20040;-67
2022/10/21 15:18:25;;;;;;;4.13;2.30;;;;;;;18.92;86.69;100503.59;5238520;28;20128;-67
2022/10/21 15:21:02;;;;;;;3.25;1.55;;;;;;;18.87;85.85;100501.03;5245132;28;20029;-67
2022/10/21 15:23:40;;;;;;;5.28;2.35;;;;;;;18.82;86.80;100501.25;5248855;28;20055;-68
2022/10/21 15:26:40;;;;;;;5.07;2.60;;;;;;;18.75;86.72;100498.19;5251243;28;20115;-66
2022/10/21 15:29:13;;;;;;;37.65;34.08;;;;;;;18.64;86.67;100483.81;5252434;28;20069;-72
2022/10/21 15:31:44;;;;;;;4.82;2.83;;;;;;;18.63;87.55;100482.16;5259591;28;20032;-69
2022/10/21 15:34:16;;;;;;;6.03;3.08;;;;;;;18.52;87.17;100490.25;5258639;28;20037;-69
2022/10/21 15:36:50;;;;;;;3.03;1.83;;;;;;;18.54;87.60;100487.09;5243535;28;20377;-69
2022/10/21 15:39:21;;;;;;;5.10;2.78;;;;;;;18.46;88.05;100491.69;5240757;28;20032;-68
2022/10/21 15:41:55;;;;;;;3.30;2.05;;;;;;;18.46;88.35;100488.88;5256627;28;20388;-70
2022/10/21 15:44:31;;;;;;;5.03;2.13;;;;;;;18.43;87.48;100487.59;5261265;28;20033;-70
2022/10/21 15:47:07;;;;;;;4.00;2.13;;;;;;;18.38;88.06;100482.22;5261108;28;20453;-70
2022/10/21 15:49:41;;;;;;;6.18;2.67;;;;;;;18.35;88.09;100491.31;5261599;28;20040;-70
2022/10/21 15:52:13;;;;;;;2.97;1.95;;;;;;;18.33;88.23;100492.81;5261399;28;20029;-70
2022/10/21 15:54:44;;;;;;;4.85;1.48;;;;;;;18.25;87.93;100491.78;5242387;28;20071;-70
2022/10/21 15:57:19;;;;;;;3.72;1.70;;;;;;;18.22;88.28;100496.09;5240929;28;20060;-70
2022/10/21 15:59:50;;;;;;;4.63;1.60;;;;;;;18.20;88.28;100492.84;5240296;28;20447;-71
2022/10/21 16:02:22;;;;;;;6.95;2.00;;;;;;;18.16;88.05;100499.50;5252169;28;20025;-71
2022/10/21 16:04:53;;;;;;;2.33;1.20;;;;;;;18.15;87.47;100503.47;5261181;28;20023;-71
2022/10/21 16:07:28;;;;;;;2.28;1.58;;;;;;;18.10;87.47;100501.72;5261205;28;20384;-70
2022/10/21 16:10:00;;;;;;;2.65;1.48;;;;;;;18.03;87.99;100507.09;5261081;28;20036;-69
2022/10/21 16:12:31;;;;;;;2.63;1.50;;;;;;;17.98;87.92;100507.31;5261826;28;20024;-70
2022/10/21 16:15:02;;;;;;;4.47;1.75;;;;;;;17.96;88.37;100506.84;5261085;28;20067;-69
2022/10/21 16:17:34;;;;;;;3.33;1.67;;;;;;;17.89;88.90;100507.41;5261256;28;20025;-72
2022/10/21 16:20:06;;;;;;;5.93;2.85;;;;;;;17.83;89.15;100503.19;5260194;28;20182;-75
2022/10/21 16:22:37;;;;;;;6.78;5.47;;;;;;;17.80;89.26;100510.31;5258807;28;20393;-74
2022/10/21 16:25:09;;;;;;;5.10;3.08;;;;;;;17.76;89.63;100511.31;5244857;28;20032;-70
2022/10/21 16:27:41;;;;;;;5.45;2.15;;;;;;;17.71;89.24;100512.34;5249041;28;20348;-69
2022/10/21 16:30:22;;;;;;;7.30;4.40;;;;;;;17.69;89.78;100511.06;5265728;28;20464;-67
2022/10/21 16:32:55;;;;;;;5.57;2.75;;;;;;;17.63;90.08;100516.06;5265388;28;20480;-70
2022/10/21 16:35:27;;;;;;;3.40;2.33;;;;;;;17.63;90.45;100515.25;5264698;28;20480;-70
2022/10/21 16:37:58;;;;;;;4.00;2.05;;;;;;;17.65;91.57;100513.75;5265450;28;20033;-70
2022/10/21 16:40:34;;;;;;;3.70;2.35;;;;;;;17.55;90.61;100519.78;5265692;28;20024;-70
2022/10/21 16:43:05;;;;;;;4.13;2.15;;;;;;;17.48;90.71;100525.13;5265038;28;20020;-72
2022/10/21 16:45:37;;;;;;;3.03;1.83;;;;;;;17.47;91.11;100529.91;5264846;28;20024;-72
2022/10/21 16:48:09;;;;;;;3.55;2.33;;;;;;;17.45;91.17;100525.81;5265307;28;20084;-72
2022/10/21 16:50:44;;;;;;;4.32;2.85;;;;;;;17.43;91.32;100533.75;5265369;28;20033;-71
2022/10/21 16:53:16;;;;;;;4.82;2.13;;;;;;;17.36;91.57;100529.53;5264938;28;20029;-71
2022/10/21 16:55:47;;;;;;;3.08;1.88;;;;;;;17.33;91.81;100533.00;5264874;28;20029;-71
2022/10/21 16:58:18;;;;;;;3.88;1.67;;;;;;;17.29;92.19;100529.25;5265247;28;20080;-71
2022/10/21 17:00:50;;;;;;;3.42;2.17;;;;;;;17.25;92.64;100528.28;5264005;28;20578;-71
2022/10/21 17:03:21;;;;;;;6.35;2.35;;;;;;;17.25;92.70;100533.06;5265046;28;20025;-71
2022/10/21 17:05:53;;;;;;;6.93;2.53;;;;;;;17.22;93.00;100528.97;5264944;28;20021;-71
2022/10/21 17:08:24;;;;;;;5.60;2.63;;;;;;;17.17;93.03;100534.78;5264849;28;20025;-71
2022/10/21 17:10:55;;;;;;;3.85;1.92;;;;;;;17.14;93.05;100541.06;5264409;28;20380;-72
2022/10/21 17:13:27;;;;;;;7.25;2.33;;;;;;;17.15;93.44;100546.34;5264852;28;20078;-71
2022/10/21 17:15:58;;;;;;;5.28;2.47;;;;;;;17.13;93.47;100550.66;5264931;28;20028;-71
2022/10/21 17:18:29;;;;;;;6.85;2.78;;;;;;;17.08;93.47;100556.47;5264043;28;20057;-71
2022/10/21 17:21:01;;;;;;;4.07;1.92;;;;;;;17.09;93.60;100560.88;5264369;28;20085;-71
2022/10/21 17:23:32;;;;;;;5.45;2.35;;;;;;;17.05;93.48;100563.56;5264325;28;20024;-72
2022/10/21 17:26:04;;;;;;;5.32;3.42;;;;;;;17.05;93.83;100562.72;5264856;28;20472;-71
2022/10/21 17:28:35;;;;;;;5.53;3.13;;;;;;;17.02;94.16;100569.81;5264595;28;20025;-70
2022/10/21 17:31:12;;;;;;;3.92;2.05;;;;;;;17.03;93.98;100570.66;5264302;28;20078;-71
